Sarah Schulte — 5BPA3 — position and weather

sailwx.info

Track history (hours):
 
Tides and Currents Weather Stations Pressure Air Temp Water Temp Dewpoint Dewpoint Depression Visibility Wind Speed Wind Dir Waves Ship Positions

Sarah Schulte

Last reported at 2018-Jan-20 04:47 UTC. Time now 2018-Jan-20 15:20 UTC.
Position N 05°13' E 100°06'.

Length 222 m; draft 9.9 m.

Type: Ship. MMSI: 210409000.

Date/timePositionNaut miles runAvg speedWind from/ knotsBaromVisibWave heightAir tempDewpointWater temp
2018-Jan-20 04:47N 05°13' E 100°06'811.8
2018-Jan-20 04:06N 05°21' E 100°06'1410.7
2018-Jan-20 02:49N 05°35' E 100°08'711.8
2018-Jan-20 02:14N 05°34' E 100°15'312.6
2018-Jan-20 01:59N 05°32' E 100°17'612.1
2018-Jan-20 01:28N 05°27' E 100°21'2 4.3
2018-Jan-20 01:00N 05°25' E 100°22'0 0.0
2018-Jan-20 00:29N 05°25' E 100°22'0 0.0
2018-Jan-19 23:59N 05°25' E 100°22'0 0.0
2018-Jan-19 23:23N 05°25' E 100°22'0 0.0
2018-Jan-19 22:59N 05°25' E 100°22'0 0.0
2018-Jan-19 22:23N 05°25' E 100°22'0 0.0
2018-Jan-19 07:51N 05°25' E 100°22'2 4.3
2018-Jan-19 07:24N 05°27' E 100°21'410.2
2018-Jan-19 07:00N 05°31' E 100°19'4 7.7
2018-Jan-19 06:29N 05°33' E 100°16'32114.3
2018-Jan-18 07:58N 01°14' E 103°27'818.2
2018-Jan-18 07:30N 01°12' E 103°35'510.7
2018-Jan-18 07:00N 01°13' E 103°40'611.1
2018-Jan-18 06:30N 01°16' E 103°45'1 2.8
2018-Jan-18 05:59N 01°17' E 103°46'0 0.1
2018-Jan-18 05:29N 01°17' E 103°46'0 0.0
2018-Jan-18 04:56N 01°17' E 103°46'0 0.0
2018-Jan-18 04:30N 01°17' E 103°46'0 0.0
2018-Jan-18 03:56N 01°17' E 103°46'0 0.1
2018-Jan-18 03:22N 01°17' E 103°46'0 0.2
2018-Jan-18 02:59N 01°17' E 103°46'0 0.1
2018-Jan-18 02:29N 01°17' E 103°46'0 0.0
2018-Jan-18 01:50N 01°17' E 103°46'0 0.0
2018-Jan-18 01:23N 01°17' E 103°46'0 0.1
2018-Jan-18 00:59N 01°17' E 103°46'0 0.1
2018-Jan-17 23:56N 01°17' E 103°46'  
2018-Jan-10 09:12N 01°15' E 104°06'712.4
2018-Jan-10 08:41N 01°14' E 103°60'312.2
2018-Jan-10 08:28N 01°14' E 103°57'612.2
2018-Jan-10 07:59N 01°11' E 103°52'611.8
2018-Jan-10 07:30N 01°09' E 103°47'712.7
2018-Jan-10 06:59N 01°04' E 103°42'510.5
2018-Jan-10 06:30N 01°04' E 103°37'611.3
2018-Jan-10 06:01N 01°07' E 103°32'611.1
2018-Jan-10 05:30N 01°13' E 103°31'510.3
2018-Jan-10 05:00N 01°18' E 103°33'  
Track history (hours):
 
Tides and Currents Weather Stations Pressure Air Temp Water Temp Dewpoint Dewpoint Depression Visibility Wind Speed Wind Dir Waves Ship Positions

Sarah Schulte

Last reported at 2018-Jan-20 04:47 UTC. Time now 2018-Jan-20 15:20 UTC.
Position N 05°13' E 100°06'.

Length 222 m; draft 9.9 m.

Type: Ship. MMSI: 210409000.

Date/timePositionNaut miles runAvg speedWind from/ knotsBaromVisibWave heightAir tempDewpointWater temp
2018-Jan-20 04:47N 05°13' E 100°06'811.8
2018-Jan-20 04:06N 05°21' E 100°06'1410.7
2018-Jan-20 02:49N 05°35' E 100°08'711.8
2018-Jan-20 02:14N 05°34' E 100°15'312.6
2018-Jan-20 01:59N 05°32' E 100°17'612.1
2018-Jan-20 01:28N 05°27' E 100°21'2 4.3
2018-Jan-20 01:00N 05°25' E 100°22'0 0.0
2018-Jan-20 00:29N 05°25' E 100°22'0 0.0
2018-Jan-19 23:59N 05°25' E 100°22'0 0.0
2018-Jan-19 23:23N 05°25' E 100°22'0 0.0
2018-Jan-19 22:59N 05°25' E 100°22'0 0.0
2018-Jan-19 22:23N 05°25' E 100°22'0 0.0
2018-Jan-19 07:51N 05°25' E 100°22'2 4.3
2018-Jan-19 07:24N 05°27' E 100°21'410.2
2018-Jan-19 07:00N 05°31' E 100°19'4 7.7
2018-Jan-19 06:29N 05°33' E 100°16'32114.3
2018-Jan-18 07:58N 01°14' E 103°27'818.2
2018-Jan-18 07:30N 01°12' E 103°35'510.7
2018-Jan-18 07:00N 01°13' E 103°40'611.1
2018-Jan-18 06:30N 01°16' E 103°45'1 2.8
2018-Jan-18 05:59N 01°17' E 103°46'0 0.1
2018-Jan-18 05:29N 01°17' E 103°46'0 0.0
2018-Jan-18 04:56N 01°17' E 103°46'0 0.0
2018-Jan-18 04:30N 01°17' E 103°46'0 0.0
2018-Jan-18 03:56N 01°17' E 103°46'0 0.1
2018-Jan-18 03:22N 01°17' E 103°46'0 0.2
2018-Jan-18 02:59N 01°17' E 103°46'0 0.1
2018-Jan-18 02:29N 01°17' E 103°46'0 0.0
2018-Jan-18 01:50N 01°17' E 103°46'0 0.0
2018-Jan-18 01:23N 01°17' E 103°46'0 0.1
2018-Jan-18 00:59N 01°17' E 103°46'0 0.1
2018-Jan-17 23:56N 01°17' E 103°46'  
2018-Jan-10 09:12N 01°15' E 104°06'712.4
2018-Jan-10 08:41N 01°14' E 103°60'312.2
2018-Jan-10 08:28N 01°14' E 103°57'612.2
2018-Jan-10 07:59N 01°11' E 103°52'611.8
2018-Jan-10 07:30N 01°09' E 103°47'712.7
2018-Jan-10 06:59N 01°04' E 103°42'510.5
2018-Jan-10 06:30N 01°04' E 103°37'611.3
2018-Jan-10 06:01N 01°07' E 103°32'611.1
2018-Jan-10 05:30N 01°13' E 103°31'510.3
2018-Jan-10 05:00N 01°18' E 103°33'  

Dump ship's entire track history